Time;durP1;ratioP1;P1;durP2;ratioP2;P2;SDS_P1;SDS_P2;PMS_P1;PMS_P2;Temp;Humidity;BMP_temperature;BMP_pressure;BME280_temperature;BME280_humidity;BME280_pressure;Samples;Min_cycle;Max_cycle;Signal;HPM_P1;HPM_P2
2022/10/11 00:00:11;;;;;;;;;;;10.60;99.90;;;;;;5041464;28;19911;-69
2022/10/11 00:02:37;;;;;;;;;;;10.60;99.90;;;;;;5041951;28;20358;-69
2022/10/11 00:05:02;;;;;;;;;;;10.50;99.90;;;;;;5040187;28;19923;-69
2022/10/11 00:07:28;;;;;;;;;;;10.50;99.90;;;;;;5039226;28;20277;-68
2022/10/11 00:09:54;;;;;;;;;;;10.40;99.90;;;;;;5041573;28;19945;-69
2022/10/11 00:12:21;;;;;;;;;;;10.30;99.90;;;;;;5041075;28;19986;-69
2022/10/11 00:14:46;;;;;;;;;;;10.30;99.90;;;;;;5042794;28;20332;-69
2022/10/11 00:17:13;;;;;;;;;;;10.40;99.90;;;;;;5041543;28;20016;-70
2022/10/11 00:19:39;;;;;;;;;;;10.30;99.90;;;;;;5042154;28;20043;-69
2022/10/11 00:22:04;;;;;;;;;;;10.40;99.90;;;;;;5040124;28;20012;-70
2022/10/11 00:24:30;;;;;;;;;;;10.30;99.90;;;;;;5039915;28;20031;-69
2022/10/11 00:26:55;;;;;;;;;;;10.40;99.90;;;;;;5043017;28;20004;-69
2022/10/11 00:29:21;;;;;;;;;;;10.30;99.90;;;;;;5041262;28;19916;-69
2022/10/11 00:31:46;;;;;;;;;;;10.30;99.90;;;;;;5042596;28;19954;-69
2022/10/11 00:34:14;;;;;;;;;;;10.30;99.90;;;;;;5040180;28;19912;-68
2022/10/11 00:36:39;;;;;;;;;;;10.30;99.90;;;;;;5036940;28;19908;-69
2022/10/11 00:39:05;;;;;;;;;;;10.30;99.90;;;;;;5042959;28;19967;-69
2022/10/11 00:41:31;;;;;;;;;;;10.30;99.90;;;;;;5041816;28;19963;-69
2022/10/11 00:44:07;;;;;;;;;;;10.20;99.90;;;;;;5042318;28;19913;-69
2022/10/11 00:46:32;;;;;;;;;;;10.20;99.90;;;;;;5054220;28;20224;-69
2022/10/11 00:49:06;;;;;;;;;;;10.10;99.90;;;;;;5038993;28;19936;-69
2022/10/11 00:51:38;;;;;;;;;;;10.10;99.90;;;;;;5038130;28;20365;-69
2022/10/11 00:54:03;;;;;;;;;;;10.00;99.90;;;;;;5040398;28;19905;-67
2022/10/11 00:56:31;;;;;;;;;;;9.90;99.90;;;;;;5038439;28;19928;-69
2022/10/11 00:58:59;;;;;;;;;;;9.90;99.90;;;;;;5037203;28;20347;-69
2022/10/11 01:01:24;;;;;;;;;;;9.90;99.90;;;;;;5040264;28;20309;-68
2022/10/11 01:03:50;;;;;;;;;;;9.80;99.90;;;;;;5037458;28;20642;-68
2022/10/11 01:06:15;;;;;;;;;;;9.80;99.90;;;;;;5036814;28;19909;-68
2022/10/11 01:08:41;;;;;;;;;;;9.80;99.90;;;;;;5039352;28;20321;-69
2022/10/11 01:11:10;;;;;;;;;;;9.70;99.90;;;;;;5044339;28;19904;-69
2022/10/11 01:13:35;;;;;;;;;;;9.80;99.90;;;;;;5059687;28;19912;-69
2022/10/11 01:16:01;;;;;;;;;;;9.80;99.90;;;;;;5035246;28;19935;-70
2022/10/11 01:18:26;;;;;;;;;;;9.90;99.90;;;;;;5038993;28;20282;-69
2022/10/11 01:20:51;;;;;;;;;;;9.90;99.90;;;;;;5038908;28;19909;-69
2022/10/11 01:23:36;;;;;;;;;;;9.90;99.90;;;;;;5044584;28;20281;-69
2022/10/11 01:26:20;;;;;;;;;;;9.80;99.90;;;;;;5034360;28;19917;-69
2022/10/11 01:29:09;;;;;;;;;;;9.80;99.90;;;;;;5030263;28;19912;-69
2022/10/11 01:31:40;;;;;;;;;;;9.80;99.90;;;;;;5027021;28;20246;-69
2022/10/11 01:34:10;;;;;;;;;;;9.80;99.90;;;;;;5032204;28;20360;-70
2022/10/11 01:36:54;;;;;;;;;;;9.70;99.90;;;;;;5032132;28;19905;-69
2022/10/11 01:39:27;;;;;;;;;;;9.70;99.90;;;;;;5032213;28;20347;-70
2022/10/11 01:41:54;;;;;;;;;;;9.60;99.90;;;;;;5032494;28;20353;-70
2022/10/11 01:44:20;;;;;;;;;;;9.60;99.90;;;;;;5032255;28;19913;-69
2022/10/11 01:46:46;;;;;;;;;;;9.60;99.90;;;;;;5032173;28;19909;-68
2022/10/11 01:49:11;;;;;;;;;;;9.60;99.90;;;;;;5032344;28;19944;-70
2022/10/11 01:51:49;;;;;;;;;;;9.70;99.90;;;;;;5031815;28;19943;-69
2022/10/11 01:54:23;;;;;;;;;;;9.70;99.90;;;;;;5032041;28;19940;-69
2022/10/11 01:56:59;;;;;;;;;;;9.70;99.90;;;;;;5031685;28;19904;-70
2022/10/11 01:59:27;;;;;;;;;;;9.80;99.90;;;;;;5031976;28;20003;-69
2022/10/11 02:01:59;;;;;;;;;;;9.80;99.90;;;;;;5031945;28;19905;-69
2022/10/11 02:04:27;;;;;;;;;;;9.80;99.90;;;;;;5031873;28;19920;-69
2022/10/11 02:07:18;;;;;;;;;;;9.80;99.90;;;;;;5032044;28;20354;-69
2022/10/11 02:10:04;;;;;;;;;;;9.80;99.90;;;;;;5031977;28;19905;-69
2022/10/11 02:12:36;;;;;;;;;;;9.70;99.90;;;;;;5017420;28;19921;-69
2022/10/11 02:15:05;;;;;;;;;;;9.70;99.90;;;;;;5031993;28;19924;-69
2022/10/11 02:17:33;;;;;;;;;;;9.70;99.90;;;;;;5031631;28;19909;-69
2022/10/11 02:19:59;;;;;;;;;;;9.70;99.90;;;;;;5031615;28;19932;-69
2022/10/11 02:22:27;;;;;;;;;;;9.70;99.90;;;;;;5031364;28;19905;-70
2022/10/11 02:24:56;;;;;;;;;;;9.60;99.90;;;;;;5031882;28;19917;-68
2022/10/11 02:27:23;;;;;;;;;;;9.60;99.90;;;;;;5029539;28;20359;-69
2022/10/11 02:29:50;;;;;;;;;;;9.60;99.90;;;;;;5031344;28;19905;-69
2022/10/11 02:32:16;;;;;;;;;;;9.60;99.90;;;;;;5030214;28;20391;-69
2022/10/11 02:35:00;;;;;;;;;;;9.50;99.90;;;;;;5031156;28;19911;-69
2022/10/11 02:37:31;;;;;;;;;;;9.50;99.90;;;;;;5031500;28;19948;-68
2022/10/11 02:39:56;;;;;;;;;;;9.50;99.90;;;;;;5031509;28;19971;-69
2022/10/11 02:42:25;;;;;;;;;;;9.40;99.90;;;;;;5030404;28;20374;-69
2022/10/11 02:44:59;;;;;;;;;;;9.40;99.90;;;;;;5031144;28;19913;-69
2022/10/11 02:47:28;;;;;;;;;;;9.30;99.90;;;;;;5031489;28;19906;-69
2022/10/11 02:49:54;;;;;;;;;;;9.30;99.90;;;;;;5031235;28;19909;-68
2022/10/11 02:52:19;;;;;;;;;;;9.20;99.90;;;;;;5031201;28;19924;-69
2022/10/11 02:54:45;;;;;;;;;;;9.20;99.90;;;;;;5031373;28;19905;-70
2022/10/11 02:57:10;;;;;;;;;;;9.10;99.90;;;;;;5031411;28;20635;-69
2022/10/11 02:59:36;;;;;;;;;;;9.00;99.90;;;;;;5031154;28;19905;-69
2022/10/11 03:02:01;;;;;;;;;;;9.00;99.90;;;;;;5031221;28;19947;-70
2022/10/11 03:04:27;;;;;;;;;;;9.00;99.90;;;;;;5031024;28;19913;-68
2022/10/11 03:06:52;;;;;;;;;;;9.00;99.90;;;;;;5031380;28;20270;-69
2022/10/11 03:09:18;;;;;;;;;;;9.00;99.90;;;;;;5030963;28;19963;-68
2022/10/11 03:11:43;;;;;;;;;;;9.00;99.90;;;;;;5030893;28;20358;-68
2022/10/11 03:14:09;;;;;;;;;;;9.00;99.90;;;;;;5030817;28;19995;-69
2022/10/11 03:16:34;;;;;;;;;;;9.00;99.90;;;;;;5029814;28;19909;-69
2022/10/11 03:19:00;;;;;;;;;;;9.10;99.90;;;;;;5030449;28;19912;-69
2022/10/11 03:21:25;;;;;;;;;;;9.10;99.90;;;;;;5031199;28;19905;-69
2022/10/11 03:23:51;;;;;;;;;;;9.20;99.90;;;;;;5030969;28;19919;-69
2022/10/11 03:26:16;;;;;;;;;;;9.20;99.90;;;;;;5030894;28;20338;-70
2022/10/11 03:28:42;;;;;;;;;;;9.30;99.90;;;;;;5030796;28;19916;-69
2022/10/11 03:31:07;;;;;;;;;;;9.40;99.90;;;;;;5029597;28;19909;-69
2022/10/11 03:33:33;;;;;;;;;;;9.50;99.90;;;;;;5029283;28;20029;-69
2022/10/11 03:35:58;;;;;;;;;;;9.60;99.90;;;;;;5029594;28;19909;-69
2022/10/11 03:38:24;;;;;;;;;;;9.60;99.90;;;;;;5031211;28;20314;-69
2022/10/11 03:40:49;;;;;;;;;;;9.70;99.90;;;;;;5034863;28;19905;-70
2022/10/11 03:43:15;;;;;;;;;;;9.70;99.90;;;;;;5034002;28;19905;-69
2022/10/11 03:45:41;;;;;;;;;;;9.70;99.90;;;;;;5033376;28;20270;-70
2022/10/11 03:48:07;;;;;;;;;;;9.70;99.90;;;;;;5034428;28;19905;-69
2022/10/11 03:50:32;;;;;;;;;;;9.70;99.90;;;;;;5034329;28;19913;-69
2022/10/11 03:52:58;;;;;;;;;;;9.70;99.90;;;;;;5034442;28;19977;-69
2022/10/11 03:55:23;;;;;;;;;;;9.60;99.90;;;;;;5034276;28;20388;-69
2022/10/11 03:57:49;;;;;;;;;;;9.60;99.90;;;;;;5034089;28;20549;-69
2022/10/11 04:00:14;;;;;;;;;;;9.60;99.90;;;;;;5032805;28;19912;-69
2022/10/11 04:02:40;;;;;;;;;;;9.60;99.90;;;;;;5034200;28;19949;-70
2022/10/11 04:05:06;;;;;;;;;;;9.50;99.90;;;;;;5034112;28;19913;-69
2022/10/11 04:07:31;;;;;;;;;;;9.50;99.90;;;;;;5034155;28;19954;-69
2022/10/11 04:09:57;;;;;;;;;;;9.50;99.90;;;;;;5033988;28;20000;-69
2022/10/11 04:12:23;;;;;;;;;;;9.50;99.90;;;;;;5033946;28;19917;-69
2022/10/11 04:14:48;;;;;;;;;;;9.50;99.90;;;;;;5034018;28;19910;-68
2022/10/11 04:17:14;;;;;;;;;;;9.50;99.90;;;;;;5033929;28;19912;-68
2022/10/11 04:19:39;;;;;;;;;;;9.50;99.90;;;;;;5034146;28;19905;-68
2022/10/11 04:22:05;;;;;;;;;;;9.40;99.90;;;;;;5038946;28;19909;-69
2022/10/11 04:24:30;;;;;;;;;;;9.40;99.90;;;;;;5034417;28;20351;-68
2022/10/11 04:26:56;;;;;;;;;;;9.40;99.90;;;;;;5034470;28;19943;-68
2022/10/11 04:29:22;;;;;;;;;;;9.40;99.90;;;;;;5034412;28;20008;-68
2022/10/11 04:31:47;;;;;;;;;;;9.30;99.90;;;;;;5032833;28;19913;-68
2022/10/11 04:34:13;;;;;;;;;;;9.30;99.90;;;;;;5034434;28;20229;-69
2022/10/11 04:36:38;;;;;;;;;;;9.30;99.90;;;;;;5033415;28;19916;-68
2022/10/11 04:39:04;;;;;;;;;;;9.30;99.90;;;;;;5034169;28;19912;-69
2022/10/11 04:41:30;;;;;;;;;;;9.30;99.90;;;;;;5034712;28;19962;-69
2022/10/11 04:43:55;;;;;;;;;;;9.30;99.90;;;;;;5034324;28;19917;-68
2022/10/11 04:46:21;;;;;;;;;;;9.30;99.90;;;;;;5033955;28;19905;-69
2022/10/11 04:48:46;;;;;;;;;;;9.20;99.90;;;;;;5034211;28;19912;-69
2022/10/11 04:51:11;;;;;;;;;;;9.30;99.90;;;;;;5033126;28;19912;-69
2022/10/11 04:53:37;;;;;;;;;;;9.30;99.90;;;;;;5034222;28;19905;-69
2022/10/11 04:56:04;;;;;;;;;;;9.30;99.90;;;;;;5033687;28;19905;-69
2022/10/11 04:58:30;;;;;;;;;;;9.40;99.90;;;;;;5034085;28;19909;-69
2022/10/11 05:00:55;;;;;;;;;;;9.40;99.90;;;;;;5033995;28;19905;-70
2022/10/11 05:03:21;;;;;;;;;;;9.40;99.90;;;;;;5034337;28;19909;-69
2022/10/11 05:05:46;;;;;;;;;;;9.30;99.90;;;;;;5032489;28;19920;-69
2022/10/11 05:08:12;;;;;;;;;;;9.30;99.90;;;;;;5034039;28;19909;-69
2022/10/11 05:10:37;;;;;;;;;;;9.30;99.90;;;;;;5032448;28;19920;-69
2022/10/11 05:13:03;;;;;;;;;;;9.30;99.90;;;;;;5033952;28;19917;-69
2022/10/11 05:15:28;;;;;;;;;;;9.30;99.90;;;;;;5033784;28;19948;-69
2022/10/11 05:17:54;;;;;;;;;;;9.30;99.90;;;;;;5034186;28;20484;-70
2022/10/11 05:20:19;;;;;;;;;;;9.30;99.90;;;;;;5034089;28;19915;-70
2022/10/11 05:22:45;;;;;;;;;;;9.30;99.90;;;;;;5034139;28;20259;-69
2022/10/11 05:25:10;;;;;;;;;;;9.30;99.90;;;;;;5030899;28;19917;-68
2022/10/11 05:27:36;;;;;;;;;;;9.30;99.90;;;;;;5034012;28;20323;-68
2022/10/11 05:30:03;;;;;;;;;;;9.30;99.90;;;;;;5033584;28;19909;-69
2022/10/11 05:32:28;;;;;;;;;;;9.40;99.90;;;;;;5032295;28;19905;-69
2022/10/11 05:34:53;;;;;;;;;;;9.50;99.90;;;;;;5033350;28;19970;-69
2022/10/11 05:37:19;;;;;;;;;;;9.50;99.90;;;;;;5033522;28;19905;-69
2022/10/11 05:39:45;;;;;;;;;;;9.50;99.90;;;;;;5033635;28;20308;-68
2022/10/11 05:42:11;;;;;;;;;;;9.60;99.90;;;;;;5033561;28;20347;-69
2022/10/11 05:44:36;;;;;;;;;;;9.60;99.90;;;;;;5033467;28;19913;-69
2022/10/11 05:47:02;;;;;;;;;;;9.50;99.90;;;;;;5033390;28;19904;-69
2022/10/11 05:49:27;;;;;;;;;;;9.50;99.90;;;;;;5033211;28;19976;-69
2022/10/11 05:51:52;;;;;;;;;;;9.50;99.90;;;;;;5031903;28;19905;-70
2022/10/11 05:54:18;;;;;;;;;;;9.60;99.90;;;;;;5032843;28;19913;-69
2022/10/11 05:56:43;;;;;;;;;;;9.70;99.90;;;;;;5032632;28;20000;-69
2022/10/11 05:59:09;;;;;;;;;;;9.80;99.90;;;;;;5033040;28;19911;-69
2022/10/11 06:01:34;;;;;;;;;;;9.80;99.90;;;;;;5033147;28;19955;-69
2022/10/11 06:04:00;;;;;;;;;;;9.90;99.90;;;;;;5032453;28;19924;-69
2022/10/11 06:06:25;;;;;;;;;;;10.00;99.90;;;;;;5032444;28;20385;-69
2022/10/11 06:08:51;;;;;;;;;;;10.10;99.90;;;;;;5032451;28;19905;-69
2022/10/11 06:11:19;;;;;;;;;;;10.20;99.90;;;;;;5032882;28;19948;-69
2022/10/11 06:13:44;;;;;;;;;;;10.20;99.90;;;;;;5032975;28;19951;-69
2022/10/11 06:16:10;;;;;;;;;;;10.30;99.90;;;;;;5033045;28;19913;-69
2022/10/11 06:18:36;;;;;;;;;;;10.40;99.90;;;;;;5032457;28;19913;-69
2022/10/11 06:21:01;;;;;;;;;;;10.50;99.90;;;;;;5033075;28;19920;-69
2022/10/11 06:23:27;;;;;;;;;;;10.50;99.90;;;;;;5032587;28;19976;-69
2022/10/11 06:26:01;;;;;;;;;;;10.50;99.90;;;;;;5032348;28;19917;-70
2022/10/11 06:28:27;;;;;;;;;;;10.50;99.90;;;;;;5032220;28;20004;-69
2022/10/11 06:30:53;;;;;;;;;;;10.50;99.90;;;;;;5032310;28;20259;-69
2022/10/11 06:33:18;;;;;;;;;;;10.50;99.90;;;;;;5032600;28;19936;-69
2022/10/11 06:35:44;;;;;;;;;;;10.50;99.90;;;;;;5031793;28;20270;-69
2022/10/11 06:38:09;;;;;;;;;;;10.60;99.90;;;;;;5032377;28;20367;-69
2022/10/11 06:40:35;;;;;;;;;;;10.60;99.90;;;;;;5032550;28;19948;-68
2022/10/11 06:43:00;;;;;;;;;;;10.70;99.90;;;;;;5033016;28;19916;-68
2022/10/11 06:45:26;;;;;;;;;;;10.80;99.90;;;;;;5032627;28;19917;-68
2022/10/11 06:47:51;;;;;;;;;;;10.90;99.90;;;;;;5032817;28;19905;-68
2022/10/11 06:50:17;;;;;;;;;;;11.00;99.90;;;;;;5032380;28;19967;-68
2022/10/11 06:52:42;;;;;;;;;;;11.00;99.90;;;;;;5032588;28;19905;-69
2022/10/11 06:55:08;;;;;;;;;;;11.10;99.90;;;;;;5032668;28;19912;-68
2022/10/11 06:57:33;;;;;;;;;;;11.20;99.90;;;;;;5032702;28;19929;-69
2022/10/11 06:59:59;;;;;;;;;;;11.30;99.90;;;;;;5032159;28;19912;-69
2022/10/11 07:02:24;;;;;;;;;;;11.40;99.90;;;;;;5039320;28;19916;-69
2022/10/11 07:04:50;;;;;;;;;;;11.50;99.90;;;;;;5037847;28;19940;-69
2022/10/11 07:07:15;;;;;;;;;;;11.60;99.90;;;;;;5034690;28;19963;-69
2022/10/11 07:09:40;;;;;;;;;;;11.60;99.90;;;;;;5039389;28;20031;-69
2022/10/11 07:12:06;;;;;;;;;;;11.70;99.90;;;;;;5040220;28;19928;-69
2022/10/11 07:14:32;;;;;;;;;;;11.70;99.90;;;;;;5043240;28;19961;-69
2022/10/11 07:16:57;;;;;;;;;;;11.70;99.90;;;;;;5043641;28;19920;-69
2022/10/11 07:19:26;;;;;;;;;;;11.70;99.90;;;;;;5046319;28;19940;-70
2022/10/11 07:21:51;;;;;;;;;;;11.80;99.90;;;;;;5042962;28;19909;-69
2022/10/11 07:24:17;;;;;;;;;;;11.80;99.90;;;;;;5045160;28;20258;-69
2022/10/11 07:26:42;;;;;;;;;;;11.90;99.90;;;;;;5041427;28;19909;-69
2022/10/11 07:29:09;;;;;;;;;;;11.90;99.90;;;;;;5045160;28;20282;-69
2022/10/11 07:31:35;;;;;;;;;;;12.00;99.90;;;;;;5044457;28;19917;-70
2022/10/11 07:34:01;;;;;;;;;;;12.00;99.90;;;;;;5043395;28;19946;-68
2022/10/11 07:36:26;;;;;;;;;;;12.10;99.90;;;;;;5045451;28;20001;-70
2022/10/11 07:38:52;;;;;;;;;;;12.10;99.90;;;;;;5043321;28;20362;-69
2022/10/11 07:41:17;;;;;;;;;;;12.10;99.90;;;;;;5042366;28;19956;-70
2022/10/11 07:43:45;;;;;;;;;;;12.10;99.90;;;;;;5045638;28;20273;-70
2022/10/11 07:46:11;;;;;;;;;;;12.10;99.90;;;;;;5041363;28;20015;-70
2022/10/11 07:48:37;;;;;;;;;;;12.20;99.90;;;;;;5042930;28;20003;-70
2022/10/11 07:51:04;;;;;;;;;;;12.20;99.90;;;;;;5043570;28;19908;-69
2022/10/11 07:53:29;;;;;;;;;;;12.30;99.90;;;;;;5042125;28;20348;-70
2022/10/11 07:55:58;;;;;;;;;;;12.30;99.90;;;;;;5044561;28;20015;-68
2022/10/11 07:58:23;;;;;;;;;;;12.40;99.90;;;;;;5041157;28;20366;-69
2022/10/11 08:00:51;;;;;;;;;;;12.50;99.90;;;;;;5041091;28;19909;-69
2022/10/11 08:03:17;;;;;;;;;;;12.70;99.90;;;;;;5041589;28;19939;-69
2022/10/11 08:05:42;;;;;;;;;;;12.90;99.90;;;;;;5044435;28;19917;-69
2022/10/11 08:08:08;;;;;;;;;;;13.20;99.90;;;;;;5043160;28;19912;-69
2022/10/11 08:10:37;;;;;;;;;;;13.40;99.90;;;;;;5042714;28;20413;-69
2022/10/11 08:13:03;;;;;;;;;;;13.80;99.90;;;;;;5044352;28;19955;-69
2022/10/11 08:15:29;;;;;;;;;;;14.40;99.90;;;;;;5043402;28;20342;-69
2022/10/11 08:17:54;;;;;;;;;;;15.30;99.90;;;;;;5043010;28;19912;-69
2022/10/11 08:20:20;;;;;;;;;;;16.10;99.90;;;;;;5042738;28;19959;-69
2022/10/11 08:22:45;;;;;;;;;;;16.60;99.90;;;;;;5044274;28;20366;-69
2022/10/11 08:25:11;;;;;;;;;;;16.80;99.90;;;;;;5042788;28;19923;-69
2022/10/11 08:27:36;;;;;;;;;;;16.80;99.90;;;;;;5044043;28;20309;-69
2022/10/11 08:30:02;;;;;;;;;;;16.80;99.90;;;;;;5041296;28;19963;-70
2022/10/11 08:32:28;;;;;;;;;;;16.80;99.90;;;;;;5044389;28;19980;-69
2022/10/11 08:34:53;;;;;;;;;;;16.80;99.90;;;;;;5044446;28;19913;-68
2022/10/11 08:37:19;;;;;;;;;;;17.00;99.90;;;;;;5042200;28;19905;-69
2022/10/11 08:39:44;;;;;;;;;;;17.80;99.90;;;;;;5043804;28;19908;-69
2022/10/11 08:42:14;;;;;;;;;;;18.50;99.90;;;;;;5043969;28;20008;-69
2022/10/11 08:44:50;;;;;;;;;;;18.90;99.90;;;;;;5042288;28;19948;-69
2022/10/11 08:47:36;;;;;;;;;;;19.20;99.60;;;;;;5041781;28;20367;-70
2022/10/11 08:50:03;;;;;;;;;;;20.00;98.60;;;;;;5040016;28;20359;-67
2022/10/11 08:52:35;;;;;;;;;;;21.30;97.40;;;;;;5042699;28;19909;-68
2022/10/11 08:55:06;;;;;;;;;;;22.50;96.20;;;;;;5040002;28;19951;-69
2022/10/11 08:57:34;;;;;;;;;;;23.80;93.50;;;;;;5042298;28;19912;-69
2022/10/11 09:00:02;;;;;;;;;;;25.00;91.80;;;;;;5044423;28;19958;-69
2022/10/11 09:02:30;;;;;;;;;;;25.80;89.40;;;;;;5041583;28;20382;-69
2022/10/11 09:04:55;;;;;;;;;;;26.30;86.00;;;;;;5041928;28;19921;-70
2022/10/11 09:07:40;;;;;;;;;;;26.70;85.00;;;;;;5043590;28;19905;-70
2022/10/11 09:10:25;;;;;;;;;;;27.10;83.70;;;;;;5041190;28;19912;-69
2022/10/11 09:12:54;;;;;;;;;;;27.50;82.20;;;;;;5041877;28;19936;-70
2022/10/11 09:15:39;;;;;;;;;;;27.90;80.40;;;;;;5041701;28;19905;-70
2022/10/11 09:18:33;;;;;;;;;;;28.00;78.00;;;;;;5040235;28;19909;-69
2022/10/11 09:21:18;;;;;;;;;;;27.80;76.30;;;;;;5005803;28;19909;-68
2022/10/11 09:24:03;;;;;;;;;;;27.00;77.50;;;;;;5039751;28;19916;-68
2022/10/11 09:26:35;;;;;;;;;;;26.80;77.60;;;;;;5041057;28;19916;-69
2022/10/11 09:29:21;;;;;;;;;;;26.90;77.60;;;;;;5035539;28;20282;-69
2022/10/11 09:31:53;;;;;;;;;;;27.20;77.40;;;;;;5033302;28;19909;-69
2022/10/11 09:34:20;;;;;;;;;;;27.50;76.10;;;;;;5041081;28;19912;-70
2022/10/11 09:36:59;;;;;;;;;;;27.80;74.40;;;;;;5042286;28;19996;-69
2022/10/11 09:39:32;;;;;;;;;;;28.00;73.80;;;;;;5040244;28;19923;-69
2022/10/11 09:42:03;;;;;;;;;;;28.20;73.10;;;;;;5040610;28;19909;-69
2022/10/11 09:44:37;;;;;;;;;;;28.70;73.30;;;;;;5042048;28;19917;-69
2022/10/11 09:47:03;;;;;;;;;;;29.20;71.80;;;;;;5027552;28;20251;-69
2022/10/11 09:49:40;;;;;;;;;;;29.70;71.20;;;;;;5038429;28;19909;-69
2022/10/11 09:52:10;;;;;;;;;;;29.90;70.40;;;;;;5040592;28;19915;-68
2022/10/11 09:54:37;;;;;;;;;;;30.00;68.80;;;;;;5040216;28;19952;-69
2022/10/11 09:57:03;;;;;;;;;;;29.30;68.90;;;;;;5038341;28;19914;-69
2022/10/11 09:59:34;;;;;;;;;;;28.60;69.70;;;;;;5032631;28;19924;-68
2022/10/11 10:02:12;;;;;;;;;;;28.20;70.00;;;;;;5041597;28;19905;-69
2022/10/11 10:04:58;;;;;;;;;;;28.10;69.80;;;;;;5036719;28;19966;-69
2022/10/11 10:07:24;;;;;;;;;;;27.70;69.30;;;;;;5036630;28;19916;-68
2022/10/11 10:09:50;;;;;;;;;;;26.80;70.20;;;;;;5040316;28;19908;-69
2022/10/11 10:12:23;;;;;;;;;;;26.30;71.50;;;;;;5038869;28;19963;-69
2022/10/11 10:15:00;;;;;;;;;;;26.00;71.50;;;;;;5038256;28;19967;-69
2022/10/11 10:17:25;;;;;;;;;;;25.40;73.40;;;;;;5038113;28;19912;-69
2022/10/11 10:19:53;;;;;;;;;;;25.60;73.40;;;;;;5041044;28;19962;-69
2022/10/11 10:22:19;;;;;;;;;;;26.30;72.90;;;;;;5038026;28;19909;-70
2022/10/11 10:24:46;;;;;;;;;;;26.90;71.40;;;;;;5038500;28;19962;-69
2022/10/11 10:27:17;;;;;;;;;;;27.00;72.00;;;;;;5039236;28;19916;-69
2022/10/11 10:29:57;;;;;;;;;;;27.00;71.40;;;;;;5034974;28;19916;-69
2022/10/11 10:32:26;;;;;;;;;;;27.00;71.10;;;;;;5037545;28;19913;-69
2022/10/11 10:34:51;;;;;;;;;;;27.30;71.30;;;;;;5039682;28;19917;-69
2022/10/11 10:37:25;;;;;;;;;;;27.90;70.70;;;;;;5036477;28;19913;-68
2022/10/11 10:39:53;;;;;;;;;;;28.20;70.40;;;;;;5035500;28;19930;-69
2022/10/11 10:42:19;;;;;;;;;;;28.00;69.80;;;;;;5039415;28;19916;-69
2022/10/11 10:44:52;;;;;;;;;;;27.40;69.70;;;;;;5039205;28;19939;-69
2022/10/11 10:47:36;;;;;;;;;;;26.60;70.20;;;;;;5039429;28;19913;-69
2022/10/11 10:50:07;;;;;;;;;;;25.90;71.80;;;;;;5044598;28;20368;-68
2022/10/11 10:52:55;;;;;;;;;;;25.50;72.90;;;;;;5040931;28;19909;-69
2022/10/11 10:55:24;;;;;;;;;;;25.90;72.70;;;;;;5044400;28;19921;-69
2022/10/11 10:58:09;;;;;;;;;;;25.80;74.50;;;;;;5044222;28;19923;-68
2022/10/11 11:00:43;;;;;;;;;;;25.50;74.70;;;;;;5042725;28;20294;-68
2022/10/11 11:03:13;;;;;;;;;;;25.50;75.10;;;;;;5042653;28;19908;-69
2022/10/11 11:06:00;;;;;;;;;;;25.40;75.40;;;;;;5042330;28;19909;-68
2022/10/11 11:08:52;;;;;;;;;;;24.90;76.30;;;;;;5032605;28;19909;-68
2022/10/11 11:11:34;;;;;;;;;;;24.40;77.00;;;;;;5037325;28;19912;-69
2022/10/11 11:14:03;;;;;;;;;;;23.80;78.50;;;;;;5044981;28;19970;-68
2022/10/11 11:16:47;;;;;;;;;;;23.20;79.90;;;;;;5042951;28;19905;-68
2022/10/11 11:19:18;;;;;;;;;;;22.80;80.80;;;;;;5041618;28;19960;-68
2022/10/11 11:21:50;;;;;;;;;;;22.40;82.10;;;;;;5041210;28;19909;-68
2022/10/11 11:24:21;;;;;;;;;;;22.00;83.10;;;;;;5040666;28;19917;-68
2022/10/11 11:26:51;;;;;;;;;;;21.70;84.40;;;;;;5034734;28;19905;-70
2022/10/11 11:29:35;;;;;;;;;;;21.20;85.00;;;;;;5034231;28;19913;-69
2022/10/11 11:32:08;;;;;;;;;;;20.90;85.70;;;;;;5035281;28;19916;-69
2022/10/11 11:34:38;;;;;;;;;;;20.60;86.10;;;;;;5034048;28;19913;-68
2022/10/11 11:37:08;;;;;;;;;;;20.30;87.30;;;;;;5034757;28;19916;-68
2022/10/11 11:39:42;;;;;;;;;;;20.00;87.20;;;;;;5039441;28;19963;-69
2022/10/11 11:42:14;;;;;;;;;;;19.80;88.40;;;;;;5036662;28;20278;-70
2022/10/11 11:44:46;;;;;;;;;;;19.70;89.00;;;;;;5035361;28;19992;-68
2022/10/11 11:47:20;;;;;;;;;;;19.70;89.70;;;;;;5035042;28;19944;-69
2022/10/11 11:49:48;;;;;;;;;;;19.60;89.70;;;;;;5035407;28;19913;-70
2022/10/11 11:52:22;;;;;;;;;;;19.60;90.20;;;;;;5035002;28;19909;-69
2022/10/11 11:55:06;;;;;;;;;;;20.40;89.70;;;;;;5034444;28;20003;-67
2022/10/11 11:57:46;;;;;;;;;;;21.00;87.00;;;;;;5034712;28;19909;-69
2022/10/11 12:00:14;;;;;;;;;;;21.30;86.40;;;;;;5033355;28;19975;-68
2022/10/11 12:02:39;;;;;;;;;;;21.60;86.10;;;;;;5033595;28;19916;-69
2022/10/11 12:05:06;;;;;;;;;;;22.40;84.30;;;;;;5034019;28;19917;-68
2022/10/11 12:07:45;;;;;;;;;;;23.60;82.20;;;;;;5034413;28;19913;-69
2022/10/11 12:10:31;;;;;;;;;;;24.60;77.60;;;;;;5034444;28;19909;-69
2022/10/11 12:13:05;;;;;;;;;;;25.30;74.20;;;;;;5031370;28;19956;-69
2022/10/11 12:15:31;;;;;;;;;;;25.90;73.10;;;;;;5022514;28;19939;-69
2022/10/11 12:18:02;;;;;;;;;;;26.50;72.20;;;;;;5033167;28;19931;-68
2022/10/11 12:20:31;;;;;;;;;;;26.90;71.10;;;;;;5034013;28;19915;-68
2022/10/11 12:23:04;;;;;;;;;;;26.70;70.70;;;;;;5034779;28;19918;-68
2022/10/11 12:25:32;;;;;;;;;;;26.10;70.00;;;;;;5033670;28;19909;-70
2022/10/11 12:28:00;;;;;;;;;;;26.00;69.80;;;;;;5033990;28;19952;-70
2022/10/11 12:30:47;;;;;;;;;;;26.30;70.20;;;;;;5033929;28;19921;-70
2022/10/11 12:33:16;;;;;;;;;;;26.30;69.80;;;;;;5028157;28;20290;-69
2022/10/11 12:35:57;;;;;;;;;;;26.30;69.90;;;;;;5034074;28;19956;-70
2022/10/11 12:38:32;;;;;;;;;;;26.20;69.90;;;;;;5033567;28;19999;-70
2022/10/11 12:41:08;;;;;;;;;;;26.20;70.00;;;;;;5033384;28;20259;-70
2022/10/11 12:43:46;;;;;;;;;;;26.10;70.80;;;;;;5033813;28;20390;-69
2022/10/11 12:46:26;;;;;;;;;;;25.90;70.20;;;;;;5032355;28;19940;-69
2022/10/11 12:48:57;;;;;;;;;;;25.60;69.50;;;;;;5030821;28;20343;-70
2022/10/11 12:51:31;;;;;;;;;;;25.40;70.20;;;;;;5033436;28;20421;-70
2022/10/11 12:54:01;;;;;;;;;;;24.90;71.90;;;;;;5032946;28;20020;-69
2022/10/11 12:56:36;;;;;;;;;;;24.70;73.00;;;;;;5032537;28;19913;-69
2022/10/11 12:59:05;;;;;;;;;;;24.50;72.90;;;;;;5026173;28;20375;-70
2022/10/11 13:01:34;;;;;;;;;;;24.30;73.60;;;;;;5034029;28;19905;-69
2022/10/11 13:04:00;;;;;;;;;;;24.20;74.20;;;;;;5031507;28;19912;-70
2022/10/11 13:06:44;;;;;;;;;;;24.20;74.40;;;;;;5034040;28;19913;-70
2022/10/11 13:09:09;;;;;;;;;;;24.20;73.50;;;;;;5034101;28;19905;-69
2022/10/11 13:11:37;;;;;;;;;;;24.10;74.10;;;;;;5033069;28;20000;-70
2022/10/11 13:14:13;;;;;;;;;;;23.90;75.70;;;;;;5033367;28;20305;-69
2022/10/11 13:16:50;;;;;;;;;;;23.90;76.40;;;;;;5022576;28;19905;-69
2022/10/11 13:19:20;;;;;;;;;;;23.70;76.70;;;;;;5033422;28;19950;-71
2022/10/11 13:21:49;;;;;;;;;;;23.50;76.50;;;;;;5033499;28;19909;-68
2022/10/11 13:24:17;;;;;;;;;;;23.20;76.60;;;;;;5033542;28;19944;-68
2022/10/11 13:26:44;;;;;;;;;;;23.10;77.20;;;;;;5032221;28;19905;-69
2022/10/11 13:29:15;;;;;;;;;;;23.00;78.00;;;;;;5033354;28;19912;-69
2022/10/11 13:31:41;;;;;;;;;;;22.90;78.60;;;;;;5033356;28;19935;-70
2022/10/11 13:34:09;;;;;;;;;;;22.90;78.80;;;;;;5033761;28;20376;-70
2022/10/11 13:36:35;;;;;;;;;;;22.90;78.60;;;;;;5033476;28;19911;-67
2022/10/11 13:39:00;;;;;;;;;;;22.90;78.90;;;;;;5033445;28;20378;-69
2022/10/11 13:41:27;;;;;;;;;;;22.90;76.40;;;;;;5030076;28;19909;-69
2022/10/11 13:43:53;;;;;;;;;;;22.80;77.00;;;;;;5033829;28;20343;-68
2022/10/11 13:46:24;;;;;;;;;;;22.80;77.00;;;;;;5033699;28;19912;-68
2022/10/11 13:48:57;;;;;;;;;;;22.60;76.90;;;;;;5032245;28;19944;-68
2022/10/11 13:51:25;;;;;;;;;;;22.40;77.60;;;;;;5033532;28;19991;-69
2022/10/11 13:54:19;;;;;;;;;;;22.10;78.40;;;;;;5033231;28;19905;-69
2022/10/11 13:56:48;;;;;;;;;;;21.90;79.10;;;;;;5033188;28;19913;-68
2022/10/11 13:59:21;;;;;;;;;;;21.70;79.60;;;;;;5033413;28;20421;-68
2022/10/11 14:01:47;;;;;;;;;;;21.60;80.00;;;;;;5033276;28;19905;-69
2022/10/11 14:04:15;;;;;;;;;;;21.50;80.80;;;;;;5033342;28;19909;-69
2022/10/11 14:06:43;;;;;;;;;;;21.40;80.80;;;;;;5033364;28;19905;-70
2022/10/11 14:09:16;;;;;;;;;;;21.30;80.30;;;;;;5033470;28;19905;-68
2022/10/11 14:11:42;;;;;;;;;;;21.10;80.50;;;;;;5032931;28;20318;-69
2022/10/11 14:14:37;;;;;;;;;;;21.00;80.70;;;;;;5033071;28;19913;-70
2022/10/11 14:17:04;;;;;;;;;;;20.90;81.20;;;;;;5033127;28;19971;-68
2022/10/11 14:19:30;;;;;;;;;;;20.90;81.70;;;;;;5033078;28;20004;-69
2022/10/11 14:21:56;;;;;;;;;;;20.80;80.70;;;;;;5033205;28;19983;-70
2022/10/11 14:24:21;;;;;;;;;;;20.80;81.70;;;;;;5032406;28;20403;-70
2022/10/11 14:26:48;;;;;;;;;;;20.70;81.30;;;;;;5032754;28;19905;-70
2022/10/11 14:29:24;;;;;;;;;;;20.50;82.60;;;;;;5032890;28;19905;-68
2022/10/11 14:31:50;;;;;;;;;;;20.50;83.90;;;;;;5032600;28;19914;-67